Time;durP1;ratioP1;P1;durP2;ratioP2;P2;SDS_P1;SDS_P2;PMS_P1;PMS_P2;Temp;Humidity;BMP_temperature;BMP_pressure;BME280_temperature;BME280_humidity;BME280_pressure;Samples;Min_cycle;Max_cycle;Signal;HPM_P1;HPM_P2
2024/02/28 00:00:42;;;;;;;2.57;2.37;;;;;;;;;;5025693;28;59654;-73
2024/02/28 00:03:08;;;;;;;3.23;2.73;;;;;;;;;;5016915;28;59694;-73
2024/02/28 00:05:33;;;;;;;2.53;2.33;;;;;;;;;;5016862;28;59627;-73
2024/02/28 00:07:58;;;;;;;2.65;2.45;;;;;;;;;;5014647;28;58355;-74
2024/02/28 00:10:23;;;;;;;2.65;2.45;;;;;;;;;;5014492;28;58415;-74
2024/02/28 00:12:48;;;;;;;3.00;2.75;;;;;;;;;;5005724;28;58755;-73
2024/02/28 00:15:13;;;;;;;2.67;2.47;;;;;;;;;;5020062;28;58292;-73
2024/02/28 00:17:42;;;;;;;2.50;2.07;;;;;;;;;;5005016;28;59799;-73
2024/02/28 00:20:08;;;;;;;2.45;2.25;;;;;;;;;;5017359;28;58933;-73
2024/02/28 00:22:33;;;;;;;2.53;2.13;;;;;;;;;;5026767;28;58593;-73
2024/02/28 00:25:00;;;;;;;2.40;2.17;;;;;;;;;;5025938;28;59125;-73
2024/02/28 00:27:25;;;;;;;2.42;2.22;;;;;;;;;;5029067;28;58311;-73
2024/02/28 00:29:51;;;;;;;2.13;2.00;;;;;;;;;;5028857;28;59449;-74
2024/02/28 00:32:16;;;;;;;2.35;2.15;;;;;;;;;;5025046;28;58638;-73
2024/02/28 00:34:41;;;;;;;2.90;2.60;;;;;;;;;;5018656;28;58502;-73
2024/02/28 00:37:06;;;;;;;2.93;2.27;;;;;;;;;;5007754;28;59359;-73
2024/02/28 00:39:31;;;;;;;3.17;2.77;;;;;;;;;;5017748;28;58519;-74
2024/02/28 00:41:56;;;;;;;3.50;2.87;;;;;;;;;;5004720;28;58602;-76
2024/02/28 00:44:22;;;;;;;2.80;2.43;;;;;;;;;;5015740;28;60227;-76
2024/02/28 00:46:47;;;;;;;2.40;2.07;;;;;;;;;;5015211;28;58476;-76
2024/02/28 00:49:12;;;;;;;2.70;2.50;;;;;;;;;;5021038;28;60175;-76
2024/02/28 00:51:37;;;;;;;2.50;2.30;;;;;;;;;;5027552;28;58960;-73
2024/02/28 00:54:02;;;;;;;3.13;2.83;;;;;;;;;;5027690;28;58701;-73
2024/02/28 00:56:28;;;;;;;2.57;2.37;;;;;;;;;;5027580;28;60071;-72
2024/02/28 00:58:53;;;;;;;2.40;2.20;;;;;;;;;;5024476;28;58877;-74
2024/02/28 01:01:18;;;;;;;3.20;2.88;;;;;;;;;;5018484;28;58399;-74
2024/02/28 01:03:43;;;;;;;3.60;3.30;;;;;;;;;;5015382;28;60686;-73
2024/02/28 01:06:08;;;;;;;2.67;2.47;;;;;;;;;;5017965;28;58582;-73
2024/02/28 01:08:34;;;;;;;2.22;2.03;;;;;;;;;;5016527;28;59436;-73
2024/02/28 01:10:59;;;;;;;2.70;2.50;;;;;;;;;;5021628;28;58893;-73
2024/02/28 01:13:24;;;;;;;2.87;2.60;;;;;;;;;;5028188;28;58352;-73
2024/02/28 01:15:49;;;;;;;4.13;2.77;;;;;;;;;;5027288;28;60455;-73
2024/02/28 01:18:14;;;;;;;2.50;2.30;;;;;;;;;;5025658;28;58877;-73
2024/02/28 01:20:39;;;;;;;2.60;2.40;;;;;;;;;;5019725;28;58487;-73
2024/02/28 01:23:05;;;;;;;2.97;2.72;;;;;;;;;;5014075;28;60682;-74
2024/02/28 01:25:30;;;;;;;3.30;3.00;;;;;;;;;;5013332;28;59830;-73
2024/02/28 01:27:55;;;;;;;2.37;2.13;;;;;;;;;;5017580;28;58551;-73
2024/02/28 01:30:21;;;;;;;3.35;3.08;;;;;;;;;;5026576;28;59544;-73
2024/02/28 01:32:46;;;;;;;4.90;2.93;;;;;;;;;;5026169;28;58351;-74
2024/02/28 01:35:11;;;;;;;3.00;2.70;;;;;;;;;;5028814;27;59957;-73
2024/02/28 01:37:36;;;;;;;2.77;2.57;;;;;;;;;;5023931;28;58826;-73
2024/02/28 01:40:04;;;;;;;3.10;2.80;;;;;;;;;;5025152;28;58816;-73
2024/02/28 01:42:30;;;;;;;3.07;2.77;;;;;;;;;;5025702;28;58589;-73
2024/02/28 01:44:55;;;;;;;3.40;3.10;;;;;;;;;;5025641;28;58597;-73
2024/02/28 01:47:20;;;;;;;3.17;2.93;;;;;;;;;;5016670;28;58484;-74
2024/02/28 01:49:46;;;;;;;3.10;2.80;;;;;;;;;;5017037;28;59765;-76
2024/02/28 01:52:12;;;;;;;3.60;3.30;;;;;;;;;;5026257;28;58582;-76
2024/02/28 01:54:37;;;;;;;3.20;2.90;;;;;;;;;;5027217;28;61154;-75
2024/02/28 01:57:03;;;;;;;2.83;2.42;;;;;;;;;;5026183;28;58998;-76
2024/02/28 01:59:29;;;;;;;3.50;3.15;;;;;;;;;;5029411;27;58349;-76
2024/02/28 02:01:55;;;;;;;3.65;3.25;;;;;;;;;;5023093;28;59603;-73
2024/02/28 02:04:20;;;;;;;3.58;3.28;;;;;;;;;;5021433;28;59059;-74
2024/02/28 02:06:47;;;;;;;3.63;3.30;;;;;;;;;;5026489;28;58530;-74
2024/02/28 02:09:12;;;;;;;2.58;2.38;;;;;;;;;;5030734;28;59047;-74
2024/02/28 02:11:38;;;;;;;3.53;3.23;;;;;;;;;;5026607;28;58379;-74
2024/02/28 02:14:03;;;;;;;3.25;2.95;;;;;;;;;;5031330;28;59425;-73
2024/02/28 02:16:29;;;;;;;3.25;3.00;;;;;;;;;;5029223;28;58476;-74
2024/02/28 02:18:55;;;;;;;3.42;3.13;;;;;;;;;;5027816;28;58327;-73
2024/02/28 02:21:23;;;;;;;3.63;3.23;;;;;;;;;;5029480;28;60623;-74
2024/02/28 02:23:48;;;;;;;4.30;3.33;;;;;;;;;;5025986;27;59437;-74
2024/02/28 02:26:13;;;;;;;3.95;3.05;;;;;;;;;;5019873;28;58697;-73
2024/02/28 02:28:38;;;;;;;3.10;2.65;;;;;;;;;;5018120;28;59158;-73
2024/02/28 02:31:04;;;;;;;3.67;3.30;;;;;;;;;;5023185;28;58476;-73
2024/02/28 02:33:29;;;;;;;3.45;3.10;;;;;;;;;;5029575;28;59246;-74
2024/02/28 02:35:54;;;;;;;3.70;3.40;;;;;;;;;;5030202;28;59610;-73
2024/02/28 02:38:19;;;;;;;4.30;3.67;;;;;;;;;;5028585;28;58505;-73
2024/02/28 02:40:48;;;;;;;4.00;3.53;;;;;;;;;;5024393;28;60004;-74
2024/02/28 02:43:14;;;;;;;4.53;4.13;;;;;;;;;;5019007;28;58909;-74
2024/02/28 02:45:39;;;;;;;5.22;4.57;;;;;;;;;;5028098;28;58365;-73
2024/02/28 02:48:04;;;;;;;4.43;3.70;;;;;;;;;;5019521;28;59427;-74
2024/02/28 02:50:29;;;;;;;4.50;4.10;;;;;;;;;;5015971;28;58749;-74
2024/02/28 02:52:55;;;;;;;3.50;3.17;;;;;;;;;;5022325;28;58478;-73
2024/02/28 02:55:20;;;;;;;4.20;3.70;;;;;;;;;;5028734;28;58571;-73
2024/02/28 02:57:46;;;;;;;4.57;4.18;;;;;;;;;;5028779;28;58328;-73
2024/02/28 03:00:11;;;;;;;4.43;3.58;;;;;;;;;;5030109;28;58676;-73
2024/02/28 03:02:39;;;;;;;4.32;3.92;;;;;;;;;;5026217;28;58571;-73
2024/02/28 03:05:04;;;;;;;3.77;3.47;;;;;;;;;;5026228;28;58425;-74
2024/02/28 03:07:29;;;;;;;4.05;3.65;;;;;;;;;;5024143;28;59644;-74
2024/02/28 03:09:55;;;;;;;4.07;3.77;;;;;;;;;;5014949;28;58755;-73
2024/02/28 03:12:21;;;;;;;3.43;3.07;;;;;;;;;;5005327;28;58423;-73
2024/02/28 03:14:46;;;;;;;3.83;3.40;;;;;;;;;;5024239;28;60395;-74
2024/02/28 03:17:12;;;;;;;3.57;3.00;;;;;;;;;;5027136;28;58584;-74
2024/02/28 03:19:37;;;;;;;4.57;3.80;;;;;;;;;;5028879;28;59769;-73
2024/02/28 03:22:03;;;;;;;3.80;3.50;;;;;;;;;;5023601;28;59053;-75
2024/02/28 03:24:28;;;;;;;4.53;3.97;;;;;;;;;;5007387;28;58505;-74
2024/02/28 03:26:53;;;;;;;4.45;3.58;;;;;;;;;;5025434;28;60398;-74
2024/02/28 03:29:18;;;;;;;3.35;3.00;;;;;;;;;;5021811;28;58491;-74
2024/02/28 03:31:43;;;;;;;4.55;3.30;;;;;;;;;;5023379;28;58460;-74
2024/02/28 03:34:09;;;;;;;3.80;3.50;;;;;;;;;;5028390;28;58428;-73
2024/02/28 03:36:35;;;;;;;3.78;3.10;;;;;;;;;;5027605;28;59324;-74
2024/02/28 03:39:00;;;;;;;3.40;3.10;;;;;;;;;;5017330;28;59422;-74
2024/02/28 03:41:25;;;;;;;3.77;3.33;;;;;;;;;;5024823;28;58896;-73
2024/02/28 03:43:50;;;;;;;5.15;3.05;;;;;;;;;;5027590;28;58409;-73
2024/02/28 03:46:15;;;;;;;4.45;3.70;;;;;;;;;;5023103;28;60660;-73
2024/02/28 03:48:40;;;;;;;3.63;3.33;;;;;;;;;;5006231;28;58971;-74
2024/02/28 03:51:05;;;;;;;3.40;3.10;;;;;;;;;;5027075;28;58402;-73
2024/02/28 03:53:31;;;;;;;3.13;2.77;;;;;;;;;;5025629;28;59496;-74
2024/02/28 03:55:56;;;;;;;3.38;3.08;;;;;;;;;;5026575;28;58706;-74
2024/02/28 03:58:21;;;;;;;3.17;2.88;;;;;;;;;;5025232;28;59325;-73
2024/02/28 04:00:46;;;;;;;3.67;3.17;;;;;;;;;;5028264;28;58653;-74
2024/02/28 04:03:13;;;;;;;2.70;2.47;;;;;;;;;;5024740;28;58356;-74
2024/02/28 04:05:39;;;;;;;3.03;2.72;;;;;;;;;;5027480;28;59469;-74
2024/02/28 04:08:04;;;;;;;2.92;2.63;;;;;;;;;;5027022;28;59104;-74
2024/02/28 04:10:29;;;;;;;3.37;3.07;;;;;;;;;;5028914;28;58514;-74
2024/02/28 04:12:54;;;;;;;3.42;3.13;;;;;;;;;;5028270;28;59115;-74
2024/02/28 04:15:19;;;;;;;3.90;3.60;;;;;;;;;;5027330;28;58817;-75
2024/02/28 04:17:45;;;;;;;3.17;2.87;;;;;;;;;;5016791;28;59791;-74
2024/02/28 04:20:11;;;;;;;2.95;2.72;;;;;;;;;;5023660;28;58524;-77
2024/02/28 04:22:36;;;;;;;2.95;2.70;;;;;;;;;;5025834;28;58489;-77
2024/02/28 04:25:01;;;;;;;3.10;2.77;;;;;;;;;;5028378;28;60426;-76
2024/02/28 04:27:26;;;;;;;3.35;2.90;;;;;;;;;;5028144;28;59635;-76
2024/02/28 04:29:51;;;;;;;2.90;2.60;;;;;;;;;;5015692;28;58377;-77
2024/02/28 04:32:16;;;;;;;2.58;2.38;;;;;;;;;;5022742;28;58443;-77
2024/02/28 04:34:41;;;;;;;3.30;2.92;;;;;;;;;;5026901;28;59786;-77
2024/02/28 04:37:07;;;;;;;3.33;3.03;;;;;;;;;;5026844;28;58380;-76
2024/02/28 04:39:32;;;;;;;3.60;3.30;;;;;;;;;;5030222;28;59189;-76
2024/02/28 04:41:57;;;;;;;2.93;2.53;;;;;;;;;;5017045;28;58485;-77
2024/02/28 04:44:22;;;;;;;2.63;2.43;;;;;;;;;;5007315;28;59768;-76
2024/02/28 04:46:47;;;;;;;3.20;2.58;;;;;;;;;;5009915;28;58830;-76
2024/02/28 04:49:12;;;;;;;2.57;2.37;;;;;;;;;;5020206;28;58429;-76
2024/02/28 04:51:38;;;;;;;2.63;2.43;;;;;;;;;;5027527;28;60319;-77
2024/02/28 04:54:03;;;;;;;2.90;2.60;;;;;;;;;;5029310;28;58451;-77
2024/02/28 04:56:28;;;;;;;2.67;2.47;;;;;;;;;;5010147;28;58289;-77
2024/02/28 04:58:53;;;;;;;2.92;2.70;;;;;;;;;;5012356;28;59243;-76
2024/02/28 05:01:18;;;;;;;2.93;2.63;;;;;;;;;;5013993;28;59754;-77
2024/02/28 05:03:43;;;;;;;3.07;2.67;;;;;;;;;;5014664;28;59185;-77
2024/02/28 05:06:09;;;;;;;3.28;2.97;;;;;;;;;;5007189;28;58773;-76
2024/02/28 05:08:36;;;;;;;3.23;2.90;;;;;;;;;;5023306;28;58517;-76
2024/02/28 05:11:01;;;;;;;3.90;3.23;;;;;;;;;;5015435;28;58522;-77
2024/02/28 05:13:26;;;;;;;3.10;2.83;;;;;;;;;;5005231;28;58733;-77
2024/02/28 05:15:51;;;;;;;2.83;2.60;;;;;;;;;;5003825;28;58258;-77
2024/02/28 05:18:17;;;;;;;2.27;2.07;;;;;;;;;;5027539;28;60127;-77
2024/02/28 05:20:42;;;;;;;3.60;3.00;;;;;;;;;;5023687;28;59218;-77
2024/02/28 05:23:07;;;;;;;3.43;3.13;;;;;;;;;;5028963;28;58424;-77
2024/02/28 05:25:32;;;;;;;3.42;2.92;;;;;;;;;;5018636;28;58522;-76
2024/02/28 05:27:57;;;;;;;3.67;3.38;;;;;;;;;;5017696;28;58490;-77
2024/02/28 05:30:22;;;;;;;3.23;2.93;;;;;;;;;;5022316;28;58682;-73
2024/02/28 05:32:47;;;;;;;2.93;2.73;;;;;;;;;;5006953;28;58620;-74
2024/02/28 05:35:14;;;;;;;3.90;3.50;;;;;;;;;;5017478;28;58370;-74
2024/02/28 05:37:39;;;;;;;4.70;3.67;;;;;;;;;;5014639;28;60334;-74
2024/02/28 05:40:06;;;;;;;3.38;3.00;;;;;;;;;;5019483;28;58605;-75
2024/02/28 05:42:31;;;;;;;3.33;2.88;;;;;;;;;;5030804;28;58431;-77
2024/02/28 05:44:56;;;;;;;4.95;3.13;;;;;;;;;;5012625;28;59121;-71
2024/02/28 05:47:21;;;;;;;4.87;3.37;;;;;;;;;;5028890;28;58339;-70
2024/02/28 05:49:46;;;;;;;4.97;3.30;;;;;;;;;;5027784;28;59262;-70
2024/02/28 05:52:13;;;;;;;4.33;3.63;;;;;;;;;;5014789;28;58909;-69
2024/02/28 05:54:38;;;;;;;7.55;4.78;;;;;;;;;;5029383;28;58478;-68
2024/02/28 05:57:03;;;;;;;7.33;6.00;;;;;;;;;;5016648;28;59416;-67
2024/02/28 05:59:28;;;;;;;10.80;6.90;;;;;;;;;;5022126;28;58495;-67
2024/02/28 06:01:54;;;;;;;11.07;7.57;;;;;;;;;;5018558;28;58555;-67
2024/02/28 06:04:19;;;;;;;16.10;8.77;;;;;;;;;;5009972;28;60234;-68
2024/02/28 06:06:44;;;;;;;10.48;8.07;;;;;;;;;;5034221;28;58453;-68
2024/02/28 06:09:10;;;;;;;11.07;8.00;;;;;;;;;;5010416;28;59371;-67
2024/02/28 06:11:35;;;;;;;10.70;8.18;;;;;;;;;;5004807;28;59290;-67
2024/02/28 06:14:01;;;;;;;10.85;8.60;;;;;;;;;;5016766;28;58436;-68
2024/02/28 06:16:26;;;;;;;10.77;7.32;;;;;;;;;;5028457;28;59557;-68
2024/02/28 06:18:51;;;;;;;12.15;6.82;;;;;;;;;;5033212;28;58829;-68
2024/02/28 06:21:17;;;;;;;11.03;7.90;;;;;;;;;;5036586;28;58421;-68
2024/02/28 06:23:42;;;;;;;13.10;7.65;;;;;;;;;;5035104;28;59270;-68
2024/02/28 06:26:14;;;;;;;11.17;7.23;;;;;;;;;;5031669;28;59006;-68
2024/02/28 06:28:42;;;;;;;9.95;7.22;;;;;;;;;;5031426;28;59530;-67
2024/02/28 06:31:11;;;;;;;8.85;6.55;;;;;;;;;;5031434;28;59938;-67
2024/02/28 06:33:36;;;;;;;8.75;6.45;;;;;;;;;;5000610;28;58410;-68
2024/02/28 06:36:01;;;;;;;11.23;5.57;;;;;;;;;;5007709;28;59144;-68
2024/02/28 06:38:26;;;;;;;10.13;6.07;;;;;;;;;;4999245;28;60045;-67
2024/02/28 06:40:51;;;;;;;8.35;5.78;;;;;;;;;;5014008;28;58717;-68
2024/02/28 06:43:17;;;;;;;9.02;5.45;;;;;;;;;;5019546;28;59935;-68
2024/02/28 06:45:42;;;;;;;8.37;6.27;;;;;;;;;;5006822;28;60491;-68
2024/02/28 06:48:07;;;;;;;8.43;5.37;;;;;;;;;;5031871;28;58361;-68
2024/02/28 06:50:32;;;;;;;12.18;6.60;;;;;;;;;;5014840;28;58960;-68
2024/02/28 06:52:58;;;;;;;8.53;5.67;;;;;;;;;;5015216;28;58624;-67
2024/02/28 06:55:23;;;;;;;8.20;5.97;;;;;;;;;;5027672;28;59258;-68
2024/02/28 06:57:48;;;;;;;8.23;5.57;;;;;;;;;;5009322;28;58956;-68
2024/02/28 07:00:14;;;;;;;11.75;5.95;;;;;;;;;;5031903;28;58308;-67
2024/02/28 07:02:39;;;;;;;7.80;4.85;;;;;;;;;;5011705;28;60261;-67
2024/02/28 07:05:06;;;;;;;7.60;5.30;;;;;;;;;;5010619;28;58466;-68
2024/02/28 07:07:31;;;;;;;7.13;4.82;;;;;;;;;;5004892;28;58582;-68
2024/02/28 07:09:57;;;;;;;5.78;4.70;;;;;;;;;;5005777;28;58410;-67
2024/02/28 07:12:22;;;;;;;7.30;5.65;;;;;;;;;;5000938;28;58497;-67
2024/02/28 07:14:47;;;;;;;7.55;4.90;;;;;;;;;;5022411;28;58295;-67
2024/02/28 07:17:12;;;;;;;8.02;5.65;;;;;;;;;;5026893;28;59629;-68
2024/02/28 07:19:37;;;;;;;5.78;5.18;;;;;;;;;;5035781;28;58481;-68
2024/02/28 07:22:05;;;;;;;8.23;5.33;;;;;;;;;;5034471;28;59806;-67
2024/02/28 07:24:30;;;;;;;7.32;4.85;;;;;;;;;;5032273;28;60166;-68
2024/02/28 07:26:55;;;;;;;7.40;5.23;;;;;;;;;;5034255;28;58271;-67
2024/02/28 07:29:21;;;;;;;6.03;4.93;;;;;;;;;;5013416;28;59304;-67
2024/02/28 07:31:46;;;;;;;5.77;5.00;;;;;;;;;;5010384;28;59613;-68
2024/02/28 07:34:11;;;;;;;6.97;4.67;;;;;;;;;;5013111;28;59871;-68
2024/02/28 07:36:37;;;;;;;6.70;4.30;;;;;;;;;;5033234;28;59620;-67
2024/02/28 07:39:02;;;;;;;5.28;4.07;;;;;;;;;;5010420;28;58692;-67
2024/02/28 07:41:27;;;;;;;6.05;4.85;;;;;;;;;;5020337;28;59612;-68
2024/02/28 07:43:53;;;;;;;5.03;3.90;;;;;;;;;;5015984;28;58532;-67
2024/02/28 07:46:18;;;;;;;5.93;3.90;;;;;;;;;;5029566;28;58189;-68
2024/02/28 07:48:43;;;;;;;5.57;4.10;;;;;;;;;;5006555;28;59234;-67
2024/02/28 07:51:08;;;;;;;5.38;3.80;;;;;;;;;;5000881;28;58376;-70
2024/02/28 07:53:33;;;;;;;5.47;4.20;;;;;;;;;;5015176;28;60047;-70
2024/02/28 07:55:59;;;;;;;6.73;4.60;;;;;;;;;;5026456;28;58688;-70
2024/02/28 07:58:24;;;;;;;5.23;3.67;;;;;;;;;;5033677;28;58528;-69
2024/02/28 08:00:53;;;;;;;6.77;5.63;;;;;;;;;;5022719;28;59329;-70
2024/02/28 08:03:18;;;;;;;5.72;4.05;;;;;;;;;;5004442;28;59703;-70
2024/02/28 08:05:44;;;;;;;8.02;4.40;;;;;;;;;;5004217;28;58516;-70
2024/02/28 08:08:09;;;;;;;7.15;4.65;;;;;;;;;;5016572;28;59408;-69
2024/02/28 08:10:35;;;;;;;5.72;3.92;;;;;;;;;;5025895;28;58740;-70
2024/02/28 08:13:00;;;;;;;5.05;3.70;;;;;;;;;;5030404;28;58299;-69
2024/02/28 08:15:25;;;;;;;4.25;3.75;;;;;;;;;;5026379;28;58962;-69
2024/02/28 08:17:51;;;;;;;4.18;3.75;;;;;;;;;;5029223;28;58421;-70
2024/02/28 08:20:16;;;;;;;5.40;3.90;;;;;;;;;;5032872;28;59262;-70
2024/02/28 08:22:41;;;;;;;5.53;3.43;;;;;;;;;;5021109;28;58394;-69
2024/02/28 08:25:06;;;;;;;4.90;3.53;;;;;;;;;;5008694;28;58479;-69
2024/02/28 08:27:34;;;;;;;4.40;3.65;;;;;;;;;;5005969;28;58469;-69
2024/02/28 08:29:59;;;;;;;4.70;3.13;;;;;;;;;;5026917;28;60145;-70
2024/02/28 08:32:24;;;;;;;4.78;3.38;;;;;;;;;;5020235;28;58291;-69
2024/02/28 08:34:49;;;;;;;5.20;3.55;;;;;;;;;;5021819;28;58371;-70
2024/02/28 08:37:14;;;;;;;4.23;3.43;;;;;;;;;;5007057;28;58530;-70
2024/02/28 08:39:40;;;;;;;5.20;3.90;;;;;;;;;;5028216;28;59136;-71
2024/02/28 08:42:05;;;;;;;3.77;3.20;;;;;;;;;;5032307;28;58387;-70
2024/02/28 08:44:30;;;;;;;4.70;3.60;;;;;;;;;;5027036;28;58621;-69
2024/02/28 08:46:55;;;;;;;4.43;3.37;;;;;;;;;;5014991;28;59041;-70
2024/02/28 08:49:20;;;;;;;4.00;2.88;;;;;;;;;;5002604;28;59226;-69
2024/02/28 08:51:46;;;;;;;4.10;3.22;;;;;;;;;;4999384;28;58587;-68
2024/02/28 08:54:11;;;;;;;4.47;3.08;;;;;;;;;;5021497;28;58327;-68
2024/02/28 08:56:36;;;;;;;4.10;3.67;;;;;;;;;;5026923;28;58361;-67
2024/02/28 08:59:01;;;;;;;4.13;3.47;;;;;;;;;;5021418;28;59191;-67
2024/02/28 09:01:26;;;;;;;4.03;3.65;;;;;;;;;;5021328;28;58497;-68
2024/02/28 09:03:51;;;;;;;4.43;3.35;;;;;;;;;;5029150;28;58377;-68
2024/02/28 09:06:16;;;;;;;3.60;2.90;;;;;;;;;;5032178;28;58412;-68
2024/02/28 09:08:42;;;;;;;4.68;3.95;;;;;;;;;;5006681;28;58810;-68
2024/02/28 09:11:07;;;;;;;4.97;3.60;;;;;;;;;;5024282;28;58364;-68
2024/02/28 09:13:32;;;;;;;3.97;2.93;;;;;;;;;;5029525;28;60590;-68
2024/02/28 09:15:57;;;;;;;4.30;3.27;;;;;;;;;;5026293;28;59593;-68
2024/02/28 09:18:23;;;;;;;3.10;2.78;;;;;;;;;;5001617;28;58347;-68
2024/02/28 09:20:48;;;;;;;3.05;2.75;;;;;;;;;;5006079;28;58379;-67
2024/02/28 09:23:14;;;;;;;3.38;2.83;;;;;;;;;;5022109;28;58358;-68
2024/02/28 09:25:40;;;;;;;4.05;2.65;;;;;;;;;;5029891;28;59667;-68
2024/02/28 09:28:05;;;;;;;3.53;3.00;;;;;;;;;;5026391;28;58804;-68
2024/02/28 09:30:30;;;;;;;3.47;3.17;;;;;;;;;;5028506;28;58727;-68
2024/02/28 09:32:55;;;;;;;3.35;2.45;;;;;;;;;;5030574;28;59185;-67
2024/02/28 09:35:20;;;;;;;3.75;3.20;;;;;;;;;;5009488;28;58677;-67
2024/02/28 09:37:45;;;;;;;3.38;3.08;;;;;;;;;;5005998;28;58394;-67
2024/02/28 09:40:11;;;;;;;3.30;2.67;;;;;;;;;;5009202;28;59459;-68
2024/02/28 09:42:36;;;;;;;4.70;3.13;;;;;;;;;;5003449;28;58371;-67
2024/02/28 09:45:02;;;;;;;4.03;3.25;;;;;;;;;;5028620;28;59819;-67
2024/02/28 09:47:27;;;;;;;3.75;3.35;;;;;;;;;;5013974;28;60191;-67
2024/02/28 09:49:53;;;;;;;2.90;2.60;;;;;;;;;;5017922;28;58413;-68
2024/02/28 09:52:18;;;;;;;3.70;2.80;;;;;;;;;;5018252;28;59522;-67
2024/02/28 09:54:44;;;;;;;3.40;3.10;;;;;;;;;;5003922;28;58428;-68
2024/02/28 09:57:10;;;;;;;3.30;3.00;;;;;;;;;;5029566;28;58395;-67
2024/02/28 09:59:36;;;;;;;3.17;2.83;;;;;;;;;;5005482;28;59544;-68
2024/02/28 10:02:03;;;;;;;3.57;2.83;;;;;;;;;;5007220;28;58468;-70
2024/02/28 10:04:29;;;;;;;3.20;2.90;;;;;;;;;;5004223;28;59340;-70
2024/02/28 10:06:54;;;;;;;3.28;2.60;;;;;;;;;;5000855;28;58940;-69
2024/02/28 10:09:19;;;;;;;3.13;2.83;;;;;;;;;;5007918;28;58354;-70
2024/02/28 10:11:44;;;;;;;3.10;2.53;;;;;;;;;;5024383;28;59239;-67
2024/02/28 10:14:09;;;;;;;2.97;2.78;;;;;;;;;;5027972;28;59865;-68
2024/02/28 10:16:35;;;;;;;3.28;2.60;;;;;;;;;;5040841;28;58371;-68
2024/02/28 10:19:00;;;;;;;2.50;2.30;;;;;;;;;;5010293;28;59399;-68
2024/02/28 10:21:26;;;;;;;2.63;2.13;;;;;;;;;;5033921;28;58524;-67
2024/02/28 10:23:51;;;;;;;3.30;2.88;;;;;;;;;;5007397;28;60078;-68
2024/02/28 10:26:16;;;;;;;3.43;3.07;;;;;;;;;;5021795;28;59979;-66
2024/02/28 10:28:45;;;;;;;2.58;2.38;;;;;;;;;;5029224;28;58481;-68
2024/02/28 10:31:10;;;;;;;4.30;2.95;;;;;;;;;;5033826;28;59394;-68
2024/02/28 10:33:36;;;;;;;3.40;2.70;;;;;;;;;;5029802;28;59385;-66
2024/02/28 10:36:02;;;;;;;2.85;2.50;;;;;;;;;;5009803;28;58393;-66
2024/02/28 10:38:27;;;;;;;3.30;2.95;;;;;;;;;;5008594;28;59319;-67
2024/02/28 10:40:53;;;;;;;2.97;2.67;;;;;;;;;;5019110;28;58484;-66
2024/02/28 10:43:19;;;;;;;2.92;2.53;;;;;;;;;;5033151;28;58414;-66
2024/02/28 10:45:44;;;;;;;3.85;3.45;;;;;;;;;;5029897;28;60329;-67
2024/02/28 10:48:10;;;;;;;3.03;2.58;;;;;;;;;;5025603;28;58585;-66
2024/02/28 10:50:35;;;;;;;3.17;2.55;;;;;;;;;;5022201;28;59197;-66
2024/02/28 10:53:03;;;;;;;3.70;2.73;;;;;;;;;;5020459;28;59127;-66
2024/02/28 10:55:33;;;;;;;2.83;2.60;;;;;;;;;;5020853;28;58486;-66
2024/02/28 10:58:01;;;;;;;2.20;2.00;;;;;;;;;;5006880;28;60246;-66
2024/02/28 11:00:26;;;;;;;2.83;2.42;;;;;;;;;;5005234;28;58947;-66
2024/02/28 11:02:52;;;;;;;2.97;2.53;;;;;;;;;;5033520;28;58226;-66
2024/02/28 11:05:18;;;;;;;3.40;2.67;;;;;;;;;;5032873;28;59319;-66
2024/02/28 11:07:43;;;;;;;2.65;2.35;;;;;;;;;;5032349;28;58522;-66
2024/02/28 11:10:10;;;;;;;2.45;2.25;;;;;;;;;;5028615;28;59404;-68
2024/02/28 11:12:36;;;;;;;2.15;1.95;;;;;;;;;;5012422;28;59426;-68
2024/02/28 11:15:03;;;;;;;2.42;2.22;;;;;;;;;;5031193;28;58386;-68
2024/02/28 11:17:29;;;;;;;2.22;2.03;;;;;;;;;;5033726;28;59348;-68
2024/02/28 11:19:54;;;;;;;3.03;2.38;;;;;;;;;;5017887;28;59785;-66
2024/02/28 11:22:20;;;;;;;2.28;1.98;;;;;;;;;;5009369;28;58328;-66
2024/02/28 11:24:46;;;;;;;2.67;2.05;;;;;;;;;;5028746;28;60476;-66
2024/02/28 11:27:13;;;;;;;2.42;2.15;;;;;;;;;;5006652;28;59815;-66
2024/02/28 11:29:39;;;;;;;2.30;2.10;;;;;;;;;;5022459;28;59111;-66
2024/02/28 11:32:05;;;;;;;2.72;2.25;;;;;;;;;;5029414;28;60097;-66
2024/02/28 11:34:30;;;;;;;3.28;2.78;;;;;;;;;;5030584;28;58455;-66
2024/02/28 11:36:55;;;;;;;2.00;1.80;;;;;;;;;;5031862;28;58804;-66
2024/02/28 11:39:21;;;;;;;2.50;2.30;;;;;;;;;;5004148;28;58917;-66
2024/02/28 11:41:46;;;;;;;3.35;2.55;;;;;;;;;;5033306;28;58171;-66
2024/02/28 11:44:12;;;;;;;2.57;2.37;;;;;;;;;;5031789;28;58691;-66
2024/02/28 11:46:37;;;;;;;3.13;2.70;;;;;;;;;;5025990;28;58421;-67
2024/02/28 11:49:03;;;;;;;2.93;2.43;;;;;;;;;;5006196;28;58459;-67
2024/02/28 11:51:29;;;;;;;2.25;1.98;;;;;;;;;;5000443;28;58835;-67
2024/02/28 11:53:54;;;;;;;2.97;2.30;;;;;;;;;;5014977;28;58456;-67
2024/02/28 11:56:21;;;;;;;2.47;2.15;;;;;;;;;;5027708;28;58342;-66
2024/02/28 11:58:49;;;;;;;2.83;2.28;;;;;;;;;;5032077;28;59322;-67
2024/02/28 12:01:14;;;;;;;2.72;2.53;;;;;;;;;;5031221;28;58368;-67
2024/02/28 12:03:44;;;;;;;2.78;2.58;;;;;;;;;;5035380;28;59285;-67
2024/02/28 12:06:11;;;;;;;2.67;2.47;;;;;;;;;;5003985;28;58534;-68
2024/02/28 12:08:36;;;;;;;2.35;2.15;;;;;;;;;;5028873;28;58458;-67
2024/02/28 12:11:08;;;;;;;3.17;2.17;;;;;;;;;;5028269;27;58946;-67
2024/02/28 12:13:33;;;;;;;2.15;1.95;;;;;;;;;;5024897;27;58375;-66
2024/02/28 12:15:58;;;;;;;2.60;2.37;;;;;;;;;;5025429;28;59464;-67
2024/02/28 12:18:27;;;;;;;2.60;2.40;;;;;;;;;;5000942;28;58458;-68
2024/02/28 12:20:52;;;;;;;2.80;2.60;;;;;;;;;;5000690;28;58487;-69
2024/02/28 12:23:17;;;;;;;2.13;1.93;;;;;;;;;;5024939;28;59790;-69
2024/02/28 12:25:43;;;;;;;2.80;2.15;;;;;;;;;;5016456;28;59639;-69
2024/02/28 12:28:09;;;;;;;2.63;2.42;;;;;;;;;;5008951;28;58185;-69
2024/02/28 12:30:39;;;;;;;2.45;2.22;;;;;;;;;;5027588;28;58435;-68
2024/02/28 12:33:04;;;;;;;2.00;1.80;;;;;;;;;;5000966;28;58394;-69
2024/02/28 12:35:29;;;;;;;2.23;2.03;;;;;;;;;;5025158;28;59240;-69
2024/02/28 12:37:54;;;;;;;2.28;2.08;;;;;;;;;;5021885;28;58993;-69
2024/02/28 12:40:20;;;;;;;2.30;2.10;;;;;;;;;;5031828;28;58265;-68
2024/02/28 12:42:45;;;;;;;2.27;2.07;;;;;;;;;;5027530;28;60300;-69
2024/02/28 12:45:10;;;;;;;1.92;1.60;;;;;;;;;;5030779;28;58793;-69
2024/02/28 12:47:37;;;;;;;2.25;2.00;;;;;;;;;;5009790;28;58367;-68
2024/02/28 12:50:03;;;;;;;2.42;2.22;;;;;;;;;;5019547;28;60212;-69
2024/02/28 12:52:28;;;;;;;2.47;2.28;;;;;;;;;;5021641;28;58958;-68
2024/02/28 12:54:53;;;;;;;2.23;2.03;;;;;;;;;;5004822;28;58456;-69
2024/02/28 12:57:19;;;;;;;2.20;2.00;;;;;;;;;;5029497;28;60012;-69
2024/02/28 12:59:44;;;;;;;2.25;2.05;;;;;;;;;;5028951;28;58382;-69
2024/02/28 13:02:10;;;;;;;1.67;1.57;;;;;;;;;;5013936;28;58592;-69
2024/02/28 13:04:35;;;;;;;2.67;2.45;;;;;;;;;;5008293;28;58970;-68
2024/02/28 13:07:00;;;;;;;1.63;1.53;;;;;;;;;;5007099;28;58408;-69
2024/02/28 13:09:25;;;;;;;2.67;2.47;;;;;;;;;;5028076;28;59651;-69
2024/02/28 13:11:50;;;;;;;2.70;2.30;;;;;;;;;;5008945;28;58724;-69
2024/02/28 13:14:16;;;;;;;2.50;2.30;;;;;;;;;;5002526;28;58427;-69
2024/02/28 13:16:41;;;;;;;2.27;2.07;;;;;;;;;;5000235;28;58939;-69
2024/02/28 13:19:06;;;;;;;2.50;1.70;;;;;;;;;;5004451;28;58350;-69
2024/02/28 13:21:34;;;;;;;3.83;2.30;;;;;;;;;;5026392;28;59105;-68
2024/02/28 13:24:00;;;;;;;1.75;1.63;;;;;;;;;;5029031;28;59293;-69
2024/02/28 13:26:25;;;;;;;2.22;2.03;;;;;;;;;;5015047;28;59068;-68
2024/02/28 13:28:50;;;;;;;2.30;2.10;;;;;;;;;;5007684;28;58548;-69
2024/02/28 13:31:16;;;;;;;2.45;2.25;;;;;;;;;;5010767;28;58578;-67
2024/02/28 13:33:41;;;;;;;1.42;1.33;;;;;;;;;;5028075;28;58411;-67
2024/02/28 13:36:06;;;;;;;2.40;2.10;;;;;;;;;;5032359;28;60239;-66
2024/02/28 13:38:32;;;;;;;2.55;2.35;;;;;;;;;;5008724;28;58488;-67
2024/02/28 13:40:57;;;;;;;1.92;1.80;;;;;;;;;;5013841;28;60586;-66
2024/02/28 13:43:22;;;;;;;1.80;1.60;;;;;;;;;;5029654;28;58493;-66
2024/02/28 13:45:48;;;;;;;2.22;2.03;;;;;;;;;;5030491;28;58398;-67
2024/02/28 13:48:17;;;;;;;1.80;1.60;;;;;;;;;;5029494;28;59621;-66
2024/02/28 13:50:43;;;;;;;2.10;2.00;;;;;;;;;;5031969;28;59850;-66
2024/02/28 13:53:08;;;;;;;1.52;1.33;;;;;;;;;;5013578;28;58764;-67
2024/02/28 13:55:33;;;;;;;1.90;1.80;;;;;;;;;;5018279;28;58395;-67
2024/02/28 13:57:59;;;;;;;2.38;2.20;;;;;;;;;;5030781;28;59817;-67
2024/02/28 14:00:24;;;;;;;2.10;2.00;;;;;;;;;;5037296;28;59259;-66
2024/02/28 14:02:49;;;;;;;1.60;1.50;;;;;;;;;;5010419;28;58844;-66
2024/02/28 14:05:14;;;;;;;2.30;2.10;;;;;;;;;;5023034;28;58464;-67
2024/02/28 14:07:39;;;;;;;1.53;1.23;;;;;;;;;;5032069;28;58718;-66
2024/02/28 14:10:05;;;;;;;1.57;1.43;;;;;;;;;;5028726;28;58816;-66
2024/02/28 14:12:30;;;;;;;2.00;1.90;;;;;;;;;;5006658;28;58304;-66
2024/02/28 14:14:55;;;;;;;1.80;1.70;;;;;;;;;;5010279;28;59063;-67
2024/02/28 14:17:20;;;;;;;1.70;1.60;;;;;;;;;;5017208;28;59181;-66
2024/02/28 14:19:48;;;;;;;1.90;1.80;;;;;;;;;;5032760;28;59512;-67
2024/02/28 14:22:13;;;;;;;2.05;1.95;;;;;;;;;;5031052;28;58885;-67
2024/02/28 14:24:38;;;;;;;1.80;1.70;;;;;;;;;;5005873;28;58323;-66
2024/02/28 14:27:05;;;;;;;1.77;1.67;;;;;;;;;;5035526;28;59485;-66
2024/02/28 14:29:30;;;;;;;1.90;1.70;;;;;;;;;;5019066;28;59830;-67
2024/02/28 14:31:55;;;;;;;2.47;1.70;;;;;;;;;;5012825;28;58430;-66